Station: Cape Jaffa

  Atmospheric Gas Attenuation - ITU Rec 676-11   --------------- db/100km ---------------
Date Time Temp RH % AH g/m3 Dew Point Wind Direction Speed kph Gust kph Barometer mB Rainfall Since 9am 24GHz 47GHz 76GHz 122GHz 134GHz 241GHz
14 23:50 7.5 89 7.13 5.8 11 15 1019.1 3.8 16.7 25.5 37.1 97.1 86.6 296.4
14 23:40 7.6 89 7.17 5.9 13 19 1019.2 3.8 16.8 25.6 37.2 97.5 87.1 297.9
14 23:30 7.7 90 7.3 6.1 9 15 1019.3 3.8 17.1 25.8 37.7 98.8 88.8 303.8
14 23:20 7.7 91 7.38 6.3 11 13 1019.2 3.8 17.2 25.9 38.1 99.7 89.8 307.6
14 23:10 7.7 91 7.38 6.4 9 13 1019.2 3.8 17.2 25.9 38.1 99.7 89.8 307.6
14 23:00 7.7 91 7.38 6.4 13 15 1019.3 3.8 17.2 25.9 38.1 99.7 89.9 307.7
14 22:50 7.7 93 7.54 6.6 9 13 1019.3 3.8 17.6 26.2 38.7 101.5 92.1 315.4
14 22:40 7.7 93 7.54 6.6 11 15 1019.3 3.8 17.6 26.2 38.7 101.5 92.1 315.4
14 22:30 7.7 93 7.54 6.6 11 15 1019.2 3.8 17.6 26.2 38.7 101.5 92.1 315.4
14 22:20 7.6 93 7.5 6.5 9 11 1019.1 3.8 17.5 26.1 38.6 101.1 91.6 313.8
14 22:10 7.8 93 7.59 6.7 9 9 1019 3.8 17.7 26.2 38.9 101.9 92.6 317.4
14 22:00 7.9 93 7.64 6.8 7 11 1019.1 3.8 17.8 26.3 39.1 102.3 93.2 319.4
14 21:50 8 93 7.69 6.9 7 11 1019.2 3.8 17.9 26.3 39.2 102.8 93.8 321.4
14 21:40 8.1 93 7.74 7 6 7 1019.1 3.8 18.0 26.4 39.4 103.2 94.3 323.4
14 21:30 8.1 93 7.74 7 7 9 1019.2 3.8 18.0 26.4 39.4 103.2 94.3 323.5
14 21:20 8.1 93 7.74 7 9 11 1019.1 3.8 18.0 26.4 39.4 103.2 94.3 323.4
14 21:10 8 93 7.69 6.9 9 13 1019.1 3.8 17.9 26.3 39.2 102.7 93.8 321.4
14 21:00 8.1 93 7.74 7 11 15 1019 3.8 18.0 26.4 39.4 103.2 94.3 323.4
14 20:50 8.1 91 7.58 6.8 11 13 1019 3.8 17.7 26.1 38.7 101.4 92.1 315.7
14 20:40 8.3 91 7.67 7 9 13 1018.9 3.8 17.8 26.2 39.0 102.1 93.1 319.2
14 20:30 8.4 91 7.72 7 11 19 1018.8 3.8 17.9 26.2 39.1 102.5 93.7 321.1
14 20:20 8.6 91 7.82 7.2 11 15 1018.8 3.8 18.2 26.3 39.4 103.4 94.8 325.2
14 20:10 8.6 91 7.82 7.2 11 17 1018.7 3.8 18.2 26.3 39.4 103.4 94.8 325.1
14 20:00 8.6 91 7.82 7.2 13 15 1018.6 3.8 18.2 26.3 39.4 103.4 94.8 325.1
14 19:50 8.6 91 7.82 7.2 11 15 1018.6 3.8 18.2 26.3 39.4 103.4 94.8 325.1
14 19:40 8.6 90 7.74 7 11 13 1018.6 3.8 18.0 26.2 39.1 102.5 93.7 321.2
14 19:30 8.7 90 7.79 7.2 11 15 1018.4 3.8 18.1 26.3 39.3 102.9 94.2 323.2
14 19:20 8.8 90 7.84 7.2 9 13 1018.3 3.8 18.2 26.3 39.4 103.3 94.8 325.2
14 19:10 8.9 90 7.89 7.3 13 17 1018.1 3.8 18.3 26.3 39.6 103.7 95.4 327.1
14 19:00 8.9 90 7.89 7.3 17 24 1017.9 3.8 18.3 26.3 39.6 103.7 95.3 327.0
14 18:50 8.9 90 7.89 7.3 11 17 1017.9 3.8 18.3 26.3 39.6 103.7 95.3 327.0
14 18:40 9 90 7.94 7.4 9 13 1017.6 3.8 18.4 26.4 39.7 104.1 95.9 329.0
14 18:30 9 91 8.03 7.6 20 26 1017.5 3.8 18.6 26.5 40.1 105.1 97.1 333.3
14 18:20 9 91 8.03 7.6 15 19 1017.3 3.8 18.6 26.5 40.1 105.0 97.1 333.2
14 18:10 9 91 8.03 7.6 17 20 1017.2 3.8 18.6 26.5 40.1 105.0 97.1 333.2
14 18:00 9 91 8.03 7.6 20 24 1017.1 3.8 18.6 26.5 40.1 105.0 97.1 333.2
14 17:50 8.9 91 7.97 7.5 20 26 1016.9 3.8 18.5 26.4 39.8 104.5 96.4 330.6
14 17:40 9 91 8.03 7.7 22 33 1016.5 3.8 18.6 26.5 40.0 105.0 97.0 333.0
14 17:30 9 91 8.03 7.7 17 20 1016.6 3.8 18.6 26.5 40.0 105.0 97.0 333.0
14 17:20 8.9 91 7.97 7.6 19 22 1016.5 3.8 18.5 26.4 39.8 104.4 96.3 330.5
14 17:10 8.9 91 7.97 7.6 22 28 1016.3 3.8 18.5 26.4 39.8 104.4 96.3 330.5
14 17:00 9.1 92 8.17 7.8 24 30 1016.2 3.8 18.9 26.7 40.6 106.4 98.8 339.3
14 16:50 9.2 91 8.13 7.8 17 20 1016.2 3.8 18.8 26.6 40.3 105.8 98.1 336.9
14 16:40 9.3 91 8.18 7.9 20 24 1016.2 3.8 18.9 26.6 40.5 106.2 98.7 338.9
14 16:30 9.3 90 8.09 7.7 22 26 1016.1 3.8 18.7 26.5 40.1 105.2 97.5 334.5
14 16:20 9.4 90 8.14 7.8 22 26 1016 3.8 18.8 26.5 40.3 105.6 98.0 336.5
14 16:10 9.6 90 8.25 8 24 30 1015.9 3.8 19.0 26.7 40.6 106.6 99.3 340.9
14 16:00 9.6 90 8.25 8 26 32 1015.7 3.8 19.0 26.7 40.6 106.5 99.2 340.9
14 15:50 9.7 90 8.3 8.1 32 37 1015.5 3.8 19.1 26.7 40.8 106.9 99.8 342.8
14 15:40 9.8 90 8.35 8.2 26 35 1015.5 3.8 19.2 26.8 40.9 107.4 100.4 344.8
14 15:30 10.1 90 8.51 8.5 24 30 1015.6 3.8 19.6 26.9 41.4 108.8 102.2 351.2
14 15:20 10 90 8.46 8.4 30 35 1015.6 3.8 19.5 26.9 41.3 108.3 101.6 349.2
14 15:10 10 90 8.46 8.4 28 32 1015.5 3.8 19.5 26.9 41.3 108.3 101.6 349.2
14 15:00 10.2 91 8.66 8.8 24 26 1015.4 3.8 19.9 27.2 42.0 110.3 104.1 358.0
14 14:50 9.8 90 8.35 8.2 24 30 1015.4 3.8 19.2 26.8 40.9 107.3 100.3 344.7
14 14:40 9.8 91 8.45 8.4 32 37 1015.3 3.8 19.5 26.9 41.3 108.5 101.7 349.6
14 14:30 9.8 91 8.45 8.4 28 37 1015.3 3.8 19.5 26.9 41.3 108.5 101.7 349.6
14 14:20 9.7 91 8.39 8.3 32 35 1015.3 3.8 19.3 26.8 41.1 107.9 101.0 347.1
14 14:10 9.6 92 8.43 8.3 32 35 1015.3 3.8 19.4 26.9 41.3 108.5 101.7 349.5
14 14:00 9.6 92 8.43 8.3 30 33 1015.1 3.8 19.4 26.9 41.3 108.5 101.7 349.4
14 13:50 9.7 93 8.58 8.6 26 33 1015.2 3.8 19.7 27.2 41.9 110.1 103.7 356.3
14 13:40 9.5 93 8.47 8.4 32 35 1015.2 3.8 19.5 27.0 41.6 109.1 102.4 351.9
14 13:30 9.4 93 8.41 8.3 28 32 1015.3 3.8 19.4 27.0 41.4 108.6 101.7 349.4
14 13:20 9.3 93 8.36 8.2 32 35 1015.3 3.6 19.3 26.9 41.2 108.1 101.1 347.4
14 13:10 9.2 93 8.31 8.1 30 33 1015.3 3.6 19.2 26.9 41.0 107.7 100.6 345.4
14 13:00 9.3 93 8.36 8.2 24 30 1015.4 3.6 19.3 26.9 41.2 108.2 101.1 347.5
14 12:50 9.2 93 8.31 8.1 26 30 1015.5 3.6 19.2 26.9 41.1 107.7 100.6 345.5
14 12:40 9.1 93 8.25 8 26 33 1015.6 3.6 19.1 26.8 40.9 107.2 99.9 343.0
14 12:30 9 93 8.2 8 28 32 1015.7 3.6 19.0 26.8 40.7 106.8 99.3 341.1
14 12:20 8.9 93 8.15 7.9 26 30 1015.9 3.6 18.9 26.7 40.6 106.4 98.8 339.1
14 12:10 8.9 93 8.15 7.9 26 28 1016 3.6 18.9 26.7 40.6 106.4 98.8 339.2
14 12:00 8.7 93 8.05 7.7 30 33 1016 3.6 18.6 26.6 40.2 105.5 97.7 335.1
14 11:50 8.7 93 8.05 7.7 30 32 1016.2 3.6 18.6 26.6 40.2 105.6 97.7 335.2
14 11:40 8.7 93 8.05 7.7 24 28 1016.4 3.4 18.6 26.6 40.3 105.6 97.7 335.3
14 11:30 8.6 94 8.08 7.7 24 26 1016.6 3.2 18.7 26.7 40.4 106.1 98.2 337.2
14 11:20 8.5 94 8.03 7.6 22 24 1016.7 3 18.6 26.7 40.3 105.7 97.7 335.2
14 11:10 8.4 94 7.98 7.5 28 32 1016.8 3 18.5 26.6 40.1 105.2 97.1 333.2
14 11:00 8.4 95 8.06 7.6 26 30 1016.9 2.8 18.7 26.7 40.5 106.2 98.2 337.2
14 10:50 8.3 95 8.01 7.5 26 30 1017 2.6 18.6 26.7 40.3 105.7 97.7 335.2
14 10:40 8.3 95 8.01 7.5 26 30 1017 2.4 18.6 26.7 40.3 105.7 97.7 335.2
14 10:30 8.3 95 8.01 7.5 24 28 1017.1 2 18.6 26.7 40.3 105.7 97.7 335.2
14 10:20 8.3 95 8.01 7.5 26 30 1017.2 1.8 18.6 26.7 40.3 105.8 97.7 335.3
14 10:10 8.3 95 8.01 7.5 28 32 1017.2 1.6 18.6 26.7 40.3 105.8 97.7 335.3
14 10:00 8.3 95 8.01 7.5 26 32 1017.2 1.2 18.6 26.7 40.3 105.8 97.7 335.3
14 09:50 8.3 95 8.01 7.5 22 26 1017.2 0.8 18.6 26.7 40.3 105.8 97.7 335.3
14 09:40 8.3 95 8.01 7.5 22 24 1017.2 0.6 18.6 26.7 40.3 105.8 97.7 335.3
14 09:30 8.3 95 8.01 7.5 24 28 1017.2 0.4 18.6 26.7 40.3 105.8 97.7 335.3
14 09:20 8.3 95 8.01 7.5 24 28 1017.2 0.2 18.6 26.7 40.3 105.8 97.7 335.3
14 09:10 8.3 95 8.01 7.5 22 28 1017.2 0 18.6 26.7 40.3 105.8 97.7 335.3
14 09:00 8.3 95 8.01 7.5 22 26 1017.2 0 18.6 26.7 40.3 105.8 97.7 335.3
14 08:50 8.3 95 8.01 7.5 22 26 1017.2 3.8 18.6 26.7 40.3 105.8 97.7 335.3
14 08:40 8.3 95 8.01 7.5 20 28 1017.2 3.8 18.6 26.7 40.3 105.8 97.7 335.3
14 08:30 8.3 95 8.01 7.5 20 22 1017.1 3.6 18.6 26.7 40.3 105.7 97.7 335.2
14 08:20 8.3 95 8.01 7.5 22 26 1017.1 3.6 18.6 26.7 40.3 105.7 97.7 335.2
14 08:10 8.3 95 8.01 7.5 20 22 1017.1 3.6 18.6 26.7 40.3 105.7 97.7 335.2
14 08:00 8.3 95 8.01 7.5 22 28 1017.1 3.4 18.6 26.7 40.3 105.7 97.7 335.2
14 07:50 8.3 95 8.01 7.5 20 24 1017.1 3.2 18.6 26.7 40.3 105.7 97.7 335.2
14 07:40 8.3 95 8.01 7.5 20 24 1017.1 3.2 18.6 26.7 40.3 105.7 97.7 335.2
14 07:30 8.3 95 8.01 7.5 22 26 1017.1 3 18.6 26.7 40.3 105.7 97.7 335.2
14 07:20 8.3 95 8.01 7.5 20 24 1017.1 3 18.6 26.7 40.3 105.7 97.7 335.2

Last Refresh: 14-Jun-2024 23:55:41

Bureau of Meteorology